Time,TemperatureF,DewpointF,PressureIn,WindDirection,WindDirectionDegrees,WindSpeedMPH,WindSpeedGustMPH,Humidity,HourlyPrecipIn,Conditions,Clouds,dailyrainin,SoftwareType,DateUTC
2013-02-09 00:00:00,44.9,42.7,30.12,NW,313,0.0,4.0,92,0.00,,SKC,0.01,VWS V14.01,2013-02-09 05:00:00,
2013-02-09 00:01:00,44.8,42.3,30.12,NW,313,0.0,4.0,91,0.00,,SKC,0.00,VWS V14.01,2013-02-09 05:01:00,
2013-02-09 00:06:00,44.6,42.1,30.11,NW,313,0.0,2.0,91,0.00,,SKC,0.00,VWS V14.01,2013-02-09 05:06:00,
2013-02-09 00:11:00,44.4,41.7,30.11,NW,313,0.0,2.0,90,0.00,,SKC,0.00,VWS V14.01,2013-02-09 05:11:00,
2013-02-09 00:16:00,44.0,41.5,30.11,NW,313,0.0,2.0,91,0.00,,SKC,0.00,VWS V14.01,2013-02-09 05:16:00,
2013-02-09 00:21:00,43.4,41.0,30.11,NW,313,1.0,2.0,91,0.00,,SKC,0.00,VWS V14.01,2013-02-09 05:21:00,
2013-02-09 00:26:00,43.0,40.6,30.11,NNW,338,0.0,3.0,91,0.00,,SKC,0.00,VWS V14.01,2013-02-09 05:26:00,
2013-02-09 00:31:00,42.8,40.1,30.11,NNW,338,0.0,3.0,90,0.00,,SKC,0.00,VWS V14.01,2013-02-09 05:31:00,
2013-02-09 00:36:00,42.8,40.1,30.11,NNW,338,0.0,3.0,90,0.00,,SKC,0.00,VWS V14.01,2013-02-09 05:36:00,
2013-02-09 00:41:00,42.6,39.6,30.11,NNW,338,0.0,3.0,89,0.00,,SKC,0.00,VWS V14.01,2013-02-09 05:41:00,
2013-02-09 00:46:00,42.4,39.4,30.11,NNW,338,0.0,3.0,89,0.00,,SKC,0.00,VWS V14.01,2013-02-09 05:46:00,
2013-02-09 00:51:00,42.2,39.2,30.11,NNW,338,0.0,3.0,89,0.00,,SKC,0.00,VWS V14.01,2013-02-09 05:51:00,
2013-02-09 00:56:00,41.5,38.5,30.10,NE,34,0.0,3.0,89,0.00,,SKC,0.00,VWS V14.01,2013-02-09 05:56:00,
2013-02-09 01:00:00,39.0,34.3,30.11,NNE,13,1.0,3.0,83,0.00,,SKC,0.00,VWS V14.01,2013-02-09 06:00:00,
2013-02-09 01:01:00,40.4,37.4,30.10,ESE,104,3.0,3.0,89,0.00,,SKC,0.00,VWS V14.01,2013-02-09 06:01:00,
2013-02-09 01:06:00,40.2,37.5,30.10,East,79,0.0,2.0,90,0.00,,SKC,0.00,VWS V14.01,2013-02-09 06:06:00,
2013-02-09 01:11:00,40.6,37.0,30.10,NNE,13,0.0,3.0,87,0.00,,SKC,0.00,VWS V14.01,2013-02-09 06:11:00,
2013-02-09 01:16:00,40.9,36.5,30.10,NNE,14,0.0,3.0,84,0.00,,SKC,0.00,VWS V14.01,2013-02-09 06:16:00,
2013-02-09 01:21:00,41.1,36.0,30.10,NNE,13,0.0,3.0,82,0.00,,SKC,0.00,VWS V14.01,2013-02-09 06:21:00,
2013-02-09 01:26:00,41.0,35.9,30.10,NNE,13,0.0,3.0,82,0.00,,SKC,0.00,VWS V14.01,2013-02-09 06:26:00,
2013-02-09 01:31:00,40.7,35.6,30.10,NNE,13,0.0,3.0,82,0.00,,SKC,0.00,VWS V14.01,2013-02-09 06:31:00,
2013-02-09 01:36:00,40.5,35.5,30.10,NNE,13,0.0,3.0,82,0.00,,SKC,0.00,VWS V14.01,2013-02-09 06:36:00,
2013-02-09 01:41:00,40.4,35.0,30.11,NNE,13,0.0,3.0,81,0.00,,SKC,0.00,VWS V14.01,2013-02-09 06:41:00,
2013-02-09 01:46:00,40.3,34.9,30.11,NNE,13,0.0,3.0,81,0.00,,SKC,0.00,VWS V14.01,2013-02-09 06:46:00,
2013-02-09 01:51:00,40.0,34.7,30.11,NNE,13,0.0,3.0,81,0.00,,SKC,0.00,VWS V14.01,2013-02-09 06:51:00,
2013-02-09 01:56:00,39.5,34.5,30.11,NNE,13,0.0,3.0,82,0.00,,SKC,0.00,VWS V14.01,2013-02-09 06:56:00,
2013-02-09 02:00:00,36.5,32.1,30.14,NNE,14,0.0,2.0,84,0.00,,SKC,0.00,VWS V14.01,2013-02-09 07:00:00,
2013-02-09 02:01:00,39.0,34.3,30.11,NNE,13,1.0,3.0,83,0.00,,SKC,0.00,VWS V14.01,2013-02-09 07:01:00,
2013-02-09 02:06:00,38.6,33.9,30.11,NNE,14,0.0,2.0,83,0.00,,SKC,0.00,VWS V14.01,2013-02-09 07:06:00,
2013-02-09 02:11:00,38.4,33.7,30.12,NNE,14,0.0,2.0,83,0.00,,SKC,0.00,VWS V14.01,2013-02-09 07:11:00,
2013-02-09 02:16:00,38.3,33.6,30.12,NNE,14,0.0,2.0,83,0.00,,SKC,0.00,VWS V14.01,2013-02-09 07:16:00,
2013-02-09 02:21:00,38.4,33.7,30.12,NNE,14,0.0,2.0,83,0.00,,SKC,0.00,VWS V14.01,2013-02-09 07:21:00,
2013-02-09 02:26:00,38.4,33.4,30.12,NNE,14,0.0,2.0,82,0.00,,SKC,0.00,VWS V14.01,2013-02-09 07:26:00,
2013-02-09 02:31:00,38.3,33.3,30.12,NNE,14,0.0,2.0,82,0.00,,SKC,0.00,VWS V14.01,2013-02-09 07:31:00,
2013-02-09 02:36:00,38.1,33.1,30.13,NNE,14,0.0,2.0,82,0.00,,SKC,0.00,VWS V14.01,2013-02-09 07:36:00,
2013-02-09 02:41:00,37.9,32.9,30.13,NNE,14,0.0,2.0,82,0.00,,SKC,0.00,VWS V14.01,2013-02-09 07:41:00,
2013-02-09 02:46:00,37.7,32.7,30.13,NNE,14,0.0,2.0,82,0.00,,SKC,0.00,VWS V14.01,2013-02-09 07:46:00,
2013-02-09 02:51:00,37.5,32.8,30.13,NNE,14,0.0,2.0,83,0.00,,SKC,0.00,VWS V14.01,2013-02-09 07:51:00,
2013-02-09 02:56:00,37.1,32.4,30.13,NNE,14,0.0,2.0,83,0.00,,SKC,0.00,VWS V14.01,2013-02-09 07:56:00,
2013-02-09 03:00:00,36.8,32.1,30.16,NNE,14,0.0,3.0,83,0.00,,SKC,0.00,VWS V14.01,2013-02-09 08:00:00,
2013-02-09 03:01:00,36.5,32.1,30.14,NNE,14,0.0,2.0,84,0.00,,SKC,0.00,VWS V14.01,2013-02-09 08:01:00,
2013-02-09 03:06:00,36.1,32.0,30.14,NNE,14,0.0,1.0,85,0.00,,SKC,0.00,VWS V14.01,2013-02-09 08:06:00,
2013-02-09 03:11:00,35.9,32.1,30.14,NNE,14,0.0,1.0,86,0.00,,SKC,0.00,VWS V14.01,2013-02-09 08:11:00,
2013-02-09 03:16:00,35.9,32.1,30.14,NNE,14,0.0,1.0,86,0.00,,SKC,0.00,VWS V14.01,2013-02-09 08:16:00,
2013-02-09 03:21:00,36.0,33.9,30.14,NNE,14,0.0,1.0,92,0.00,,SKC,0.00,VWS V14.01,2013-02-09 08:21:00,
2013-02-09 03:26:00,36.0,32.2,30.14,NNE,14,0.0,1.0,86,0.00,,SKC,0.00,VWS V14.01,2013-02-09 08:26:00,
2013-02-09 03:31:00,35.9,32.1,30.15,NNE,14,0.0,1.0,86,0.00,,SKC,0.00,VWS V14.01,2013-02-09 08:31:00,
2013-02-09 03:36:00,36.2,32.4,30.15,NNE,14,0.0,2.0,86,0.00,,SKC,0.00,VWS V14.01,2013-02-09 08:36:00,
2013-02-09 03:41:00,36.4,32.3,30.15,NNE,14,1.0,3.0,85,0.00,,SKC,0.00,VWS V14.01,2013-02-09 08:41:00,
2013-02-09 03:45:00,36.4,32.0,30.15,NNE,14,0.0,3.0,84,0.00,,SKC,0.00,VWS V14.01,2013-02-09 08:45:00,
2013-02-09 03:50:00,36.5,32.1,30.16,NNE,14,0.0,3.0,84,0.00,,SKC,0.00,VWS V14.01,2013-02-09 08:50:00,
2013-02-09 03:55:00,36.6,32.2,30.16,NNE,14,0.0,3.0,84,0.00,,SKC,0.00,VWS V14.01,2013-02-09 08:55:00,
2013-02-09 04:00:00,36.8,32.1,30.16,NNE,14,0.0,3.0,83,0.00,,SKC,0.00,VWS V14.01,2013-02-09 09:00:00,
2013-02-09 04:05:00,36.5,31.8,30.17,NNE,14,0.0,1.0,83,0.00,,SKC,0.00,VWS V14.01,2013-02-09 09:05:00,
2013-02-09 04:10:00,36.2,31.5,30.17,NNE,14,0.0,1.0,83,0.00,,SKC,0.00,VWS V14.01,2013-02-09 09:10:00,
2013-02-09 04:15:00,36.0,31.4,30.17,NNE,14,0.0,1.0,83,0.00,,SKC,0.00,VWS V14.01,2013-02-09 09:15:00,
2013-02-09 04:20:00,36.0,31.4,30.17,NNE,14,0.0,1.0,83,0.00,,SKC,0.00,VWS V14.01,2013-02-09 09:20:00,
2013-02-09 04:25:00,35.7,31.0,30.17,NNE,14,0.0,1.0,83,0.00,,SKC,0.00,VWS V14.01,2013-02-09 09:25:00,
2013-02-09 04:30:00,35.4,31.1,30.17,NNE,14,0.0,1.0,84,0.00,,SKC,0.00,VWS V14.01,2013-02-09 09:30:00,
2013-02-09 04:35:00,35.1,30.8,30.17,NNE,14,0.0,1.0,84,0.00,,SKC,0.00,VWS V14.01,2013-02-09 09:35:00,
2013-02-09 04:40:00,34.7,30.7,30.17,NNE,14,0.0,1.0,85,0.00,,SKC,0.00,VWS V14.01,2013-02-09 09:40:00,
2013-02-09 04:45:00,34.4,30.6,30.18,NNE,14,0.0,1.0,86,0.00,,SKC,0.00,VWS V14.01,2013-02-09 09:45:00,
2013-02-09 04:50:00,34.3,30.6,30.18,NNE,14,0.0,1.0,86,0.00,,SKC,0.00,VWS V14.01,2013-02-09 09:50:00,
2013-02-09 04:55:00,34.2,30.7,30.18,NNE,14,0.0,1.0,87,0.00,,SKC,0.00,VWS V14.01,2013-02-09 09:55:00,
2013-02-09 05:00:00,34.2,30.7,30.19,NNE,14,0.0,1.0,87,0.00,,SKC,0.00,VWS V14.01,2013-02-09 10:00:00,
2013-02-09 05:05:00,34.0,30.5,30.19,NNE,14,0.0,1.0,87,0.00,,SKC,0.00,VWS V14.01,2013-02-09 10:05:00,
2013-02-09 05:10:00,33.5,30.3,30.19,NNE,14,0.0,1.0,88,0.00,,SKC,0.00,VWS V14.01,2013-02-09 10:10:00,
2013-02-09 05:15:00,33.3,30.1,30.19,NNE,14,0.0,1.0,88,0.00,,SKC,0.00,VWS V14.01,2013-02-09 10:15:00,
2013-02-09 05:20:00,33.2,30.3,30.19,NNE,14,0.0,1.0,89,0.00,,SKC,0.00,VWS V14.01,2013-02-09 10:20:00,
2013-02-09 05:25:00,33.1,30.2,30.20,NNE,14,0.0,1.0,89,0.00,,SKC,0.00,VWS V14.01,2013-02-09 10:25:00,
2013-02-09 05:30:00,32.9,30.0,30.20,NNE,14,0.0,1.0,89,0.00,,SKC,0.00,VWS V14.01,2013-02-09 10:30:00,
2013-02-09 05:35:00,32.5,29.6,30.20,NNE,14,0.0,1.0,89,0.00,,SKC,0.00,VWS V14.01,2013-02-09 10:35:00,
2013-02-09 05:40:00,32.1,29.2,30.21,NNE,14,0.0,1.0,89,0.00,,SKC,0.00,VWS V14.01,2013-02-09 10:40:00,
2013-02-09 05:45:00,31.9,29.3,30.21,NNE,14,0.0,1.0,90,0.00,,SKC,0.00,VWS V14.01,2013-02-09 10:45:00,
2013-02-09 05:50:00,31.8,29.2,30.21,NNE,14,0.0,1.0,90,0.00,,SKC,0.00,VWS V14.01,2013-02-09 10:50:00,
2013-02-09 05:55:00,31.9,29.3,30.22,NNE,14,0.0,1.0,90,0.00,,SKC,0.00,VWS V14.01,2013-02-09 10:55:00,
2013-02-09 06:00:00,31.7,29.4,30.22,NNE,14,0.0,1.0,91,0.00,,SKC,0.00,VWS V14.01,2013-02-09 11:00:00,
2013-02-09 06:05:00,31.6,29.3,30.22,NNE,14,0.0,0.0,91,0.00,,SKC,0.00,VWS V14.01,2013-02-09 11:05:00,
2013-02-09 06:10:00,31.6,29.3,30.22,NNE,14,0.0,0.0,91,0.00,,SKC,0.00,VWS V14.01,2013-02-09 11:10:00,
2013-02-09 06:15:00,31.4,29.1,30.22,NNE,14,0.0,0.0,91,0.00,,SKC,0.00,VWS V14.01,2013-02-09 11:15:00,
2013-02-09 06:20:00,31.3,29.0,30.22,NNE,14,0.0,0.0,91,0.00,,SKC,0.00,VWS V14.01,2013-02-09 11:20:00,
2013-02-09 06:25:00,31.3,29.2,30.22,NNE,14,0.0,0.0,92,0.00,,SKC,0.00,VWS V14.01,2013-02-09 11:25:00,
2013-02-09 06:30:00,31.2,29.1,30.22,NNE,14,0.0,0.0,92,0.00,,SKC,0.00,VWS V14.01,2013-02-09 11:30:00,
2013-02-09 06:35:00,31.1,29.0,30.23,NNE,14,0.0,0.0,92,0.00,,SKC,0.00,VWS V14.01,2013-02-09 11:35:00,
2013-02-09 06:40:00,31.2,29.1,30.23,NNE,14,0.0,0.0,92,0.00,,SKC,0.00,VWS V14.01,2013-02-09 11:40:00,
2013-02-09 06:45:00,31.2,29.1,30.23,NNE,14,0.0,0.0,92,0.00,,SKC,0.00,VWS V14.01,2013-02-09 11:45:00,
2013-02-09 06:50:00,30.9,28.9,30.23,NNE,14,0.0,0.0,92,0.00,,SKC,0.00,VWS V14.01,2013-02-09 11:50:00,
2013-02-09 06:55:00,30.6,28.6,30.23,NNE,14,0.0,0.0,92,0.00,,SKC,0.00,VWS V14.01,2013-02-09 11:55:00,
2013-02-09 07:00:00,30.6,28.6,30.23,NNE,14,0.0,0.0,92,0.00,,SKC,0.00,VWS V14.01,2013-02-09 12:00:00,
2013-02-09 07:05:00,30.6,28.6,30.24,NNE,14,0.0,0.0,92,0.00,,SKC,0.00,VWS V14.01,2013-02-09 12:05:00,
2013-02-09 07:10:00,30.4,28.4,30.25,NNE,14,0.0,0.0,92,0.00,,SKC,0.00,VWS V14.01,2013-02-09 12:10:00,
2013-02-09 07:15:00,30.1,28.1,30.25,NNE,14,0.0,0.0,92,0.00,,SKC,0.00,VWS V14.01,2013-02-09 12:15:00,
2013-02-09 07:20:00,29.9,27.9,30.25,NNE,14,0.0,0.0,92,0.00,,SKC,0.00,VWS V14.01,2013-02-09 12:20:00,
2013-02-09 07:25:00,29.7,27.7,30.25,NNE,14,0.0,0.0,92,0.00,,SKC,0.00,VWS V14.01,2013-02-09 12:25:00,
2013-02-09 07:30:00,29.6,27.8,30.25,NNE,14,0.0,1.0,93,0.00,,SKC,0.00,VWS V14.01,2013-02-09 12:30:00,
2013-02-09 07:35:00,29.7,27.9,30.25,NNE,14,0.0,1.0,93,0.00,,SKC,0.00,VWS V14.01,2013-02-09 12:35:00,
2013-02-09 07:40:00,30.2,28.4,30.26,NNE,14,0.0,1.0,93,0.00,,SKC,0.00,VWS V14.01,2013-02-09 12:40:00,
2013-02-09 07:45:00,30.8,29.0,30.26,NNE,14,0.0,1.0,93,0.00,,SKC,0.00,VWS V14.01,2013-02-09 12:45:00,
2013-02-09 07:50:00,31.4,29.9,30.26,NNE,14,0.0,1.0,94,0.00,,SKC,0.00,VWS V14.01,2013-02-09 12:50:00,
2013-02-09 07:55:00,31.9,30.4,30.26,NNE,14,0.0,1.0,94,0.00,,SKC,0.00,VWS V14.01,2013-02-09 12:55:00,
2013-02-09 08:00:00,32.5,31.0,30.27,NNE,14,0.0,1.0,94,0.00,,SKC,0.00,VWS V14.01,2013-02-09 13:00:00,
2013-02-09 08:05:00,32.7,30.9,30.26,NNE,14,0.0,0.0,93,0.00,,SKC,0.00,VWS V14.01,2013-02-09 13:05:00,
2013-02-09 08:10:00,33.3,31.5,30.26,NNE,14,0.0,0.0,93,0.00,,SKC,0.00,VWS V14.01,2013-02-09 13:10:00,
2013-02-09 08:15:00,34.4,32.9,30.26,NNE,14,0.0,0.0,94,0.00,,SKC,0.00,VWS V14.01,2013-02-09 13:15:00,
2013-02-09 08:20:00,34.9,33.1,30.27,NNE,14,0.0,0.0,93,0.00,,SKC,0.00,VWS V14.01,2013-02-09 13:20:00,
2013-02-09 08:25:00,36.0,34.2,30.26,NNE,14,0.0,0.0,93,0.00,,SKC,0.00,VWS V14.01,2013-02-09 13:25:00,
2013-02-09 08:30:00,36.8,34.7,30.26,NNE,14,0.0,0.0,92,0.00,,SKC,0.00,VWS V14.01,2013-02-09 13:30:00,
2013-02-09 08:35:00,37.6,35.2,30.26,NNE,14,0.0,0.0,91,0.00,,SKC,0.00,VWS V14.01,2013-02-09 13:35:00,
2013-02-09 08:40:00,37.7,34.5,30.27,NNE,14,0.0,0.0,88,0.00,,SKC,0.00,VWS V14.01,2013-02-09 13:40:00,
2013-02-09 08:45:00,37.7,34.2,30.26,NNE,14,0.0,1.0,87,0.00,,SKC,0.00,VWS V14.01,2013-02-09 13:45:00,
2013-02-09 08:50:00,37.5,33.7,30.26,NNE,14,1.0,2.0,86,0.00,,SKC,0.00,VWS V14.01,2013-02-09 13:50:00,
2013-02-09 08:55:00,37.5,33.4,30.26,NNE,14,1.0,2.0,85,0.00,,SKC,0.00,VWS V14.01,2013-02-09 13:55:00,
2013-02-09 09:00:00,38.6,34.8,30.27,NNE,14,0.0,2.0,86,0.00,,SKC,0.00,VWS V14.01,2013-02-09 14:00:00,
2013-02-09 09:05:00,39.3,34.3,30.27,North,355,0.0,4.0,82,0.00,,SKC,0.00,VWS V14.01,2013-02-09 14:05:00,
2013-02-09 09:10:00,39.7,34.7,30.28,NE,35,0.0,4.0,82,0.00,,SKC,0.00,VWS V14.01,2013-02-09 14:10:00,
2013-02-09 09:15:00,40.2,34.5,30.28,NE,35,1.0,4.0,80,0.00,,SKC,0.00,VWS V14.01,2013-02-09 14:15:00,
2013-02-09 09:20:00,40.5,34.2,30.28,NNE,24,3.0,6.0,78,0.00,,SKC,0.00,VWS V14.01,2013-02-09 14:20:00,
2013-02-09 09:25:00,41.2,34.5,30.29,North,355,3.0,6.0,77,0.00,,SKC,0.00,VWS V14.01,2013-02-09 14:25:00,
2013-02-09 09:30:00,41.8,34.5,30.29,NNE,12,0.0,6.0,75,0.00,,SKC,0.00,VWS V14.01,2013-02-09 14:30:00,
2013-02-09 09:35:00,42.3,34.6,30.29,NW,317,1.0,6.0,74,0.00,,SKC,0.00,VWS V14.01,2013-02-09 14:35:00,
2013-02-09 09:40:00,42.7,35.0,30.29,NNE,17,4.0,6.0,74,0.00,,SKC,0.00,VWS V14.01,2013-02-09 14:40:00,
2013-02-09 09:45:00,43.1,34.3,30.29,North,349,4.0,6.0,71,0.00,,SKC,0.00,VWS V14.01,2013-02-09 14:45:00,
2013-02-09 09:50:00,43.5,34.7,30.29,NE,48,1.0,7.0,71,0.00,,SKC,0.00,VWS V14.01,2013-02-09 14:50:00,
2013-02-09 09:55:00,44.0,34.5,30.29,NNE,29,3.0,7.0,69,0.00,,SKC,0.00,VWS V14.01,2013-02-09 14:55:00,
2013-02-09 10:00:00,44.3,34.8,30.29,NE,34,7.0,7.0,69,0.00,,SKC,0.00,VWS V14.01,2013-02-09 15:00:00,
2013-02-09 10:05:00,44.8,34.5,30.30,NE,55,1.0,6.0,67,0.00,,SKC,0.00,VWS V14.01,2013-02-09 15:05:00,
2013-02-09 10:10:00,45.2,34.9,30.30,North,360,3.0,6.0,67,0.00,,SKC,0.00,VWS V14.01,2013-02-09 15:10:00,
2013-02-09 10:15:00,45.8,35.8,30.30,NNW,340,3.0,6.0,68,0.00,,SKC,0.00,VWS V14.01,2013-02-09 15:15:00,
2013-02-09 10:20:00,45.9,35.2,30.30,NE,41,3.0,6.0,66,0.00,,SKC,0.00,VWS V14.01,2013-02-09 15:20:00,
2013-02-09 10:25:00,46.2,35.5,30.30,NE,41,3.0,6.0,66,0.00,,SKC,0.00,VWS V14.01,2013-02-09 15:25:00,
2013-02-09 10:30:00,46.8,35.7,30.30,NE,41,0.0,6.0,65,0.00,,SKC,0.00,VWS V14.01,2013-02-09 15:30:00,
2013-02-09 10:35:00,46.9,35.8,30.30,NW,308,2.0,6.0,65,0.00,,SKC,0.00,VWS V14.01,2013-02-09 15:35:00,
2013-02-09 10:40:00,46.9,35.8,30.30,NNW,335,0.0,6.0,65,0.00,,SKC,0.00,VWS V14.01,2013-02-09 15:40:00,
2013-02-09 10:45:00,47.3,35.8,30.30,WNW,299,4.0,6.0,64,0.00,,SKC,0.00,VWS V14.01,2013-02-09 15:45:00,
2013-02-09 10:50:00,47.5,36.3,30.30,WNW,299,3.0,6.0,65,0.00,,SKC,0.00,VWS V14.01,2013-02-09 15:50:00,
2013-02-09 10:55:00,48.0,36.4,30.30,North,5,4.0,6.0,64,0.00,,SKC,0.00,VWS V14.01,2013-02-09 15:55:00,
2013-02-09 11:00:00,48.5,36.5,30.30,NNW,340,0.0,6.0,63,0.00,,SKC,0.00,VWS V14.01,2013-02-09 16:00:00,
2013-02-09 11:05:00,49.2,37.2,30.30,NNW,338,2.0,4.0,63,0.00,,SKC,0.00,VWS V14.01,2013-02-09 16:05:00,
2013-02-09 11:10:00,50.1,37.6,30.30,East,82,2.0,4.0,62,0.00,,SKC,0.00,VWS V14.01,2013-02-09 16:10:00,
2013-02-09 11:15:00,50.5,35.4,30.30,ENE,73,2.0,9.0,56,0.00,,SKC,0.00,VWS V14.01,2013-02-09 16:15:00,
2013-02-09 11:20:00,51.0,36.3,30.30,NNE,24,0.0,9.0,57,0.00,,SKC,0.00,VWS V14.01,2013-02-09 16:20:00,
2013-02-09 11:25:00,51.5,35.9,30.30,NNE,20,1.0,11.0,55,0.00,,SKC,0.00,VWS V14.01,2013-02-09 16:25:00,
2013-02-09 11:30:00,52.0,36.3,30.30,North,5,2.0,11.0,55,0.00,,SKC,0.00,VWS V14.01,2013-02-09 16:30:00,
2013-02-09 11:35:00,52.4,35.8,30.30,East,86,0.0,11.0,53,0.00,,SKC,0.00,VWS V14.01,2013-02-09 16:35:00,
2013-02-09 11:40:00,52.8,35.7,30.30,NNE,30,1.0,11.0,52,0.00,,SKC,0.00,VWS V14.01,2013-02-09 16:40:00,
2013-02-09 11:45:00,52.9,35.3,30.30,East,82,0.0,11.0,51,0.00,,SKC,0.00,VWS V14.01,2013-02-09 16:45:00,
2013-02-09 11:50:00,53.2,35.6,30.30,ENE,76,3.0,11.0,51,0.00,,SKC,0.00,VWS V14.01,2013-02-09 16:50:00,
2013-02-09 11:55:00,53.9,34.7,30.30,East,85,4.0,11.0,48,0.00,,SKC,0.00,VWS V14.01,2013-02-09 16:55:00,
2013-02-09 12:00:00,54.1,34.3,30.29,ESE,105,4.0,11.0,47,0.00,,SKC,0.00,VWS V14.01,2013-02-09 17:00:00,
2013-02-09 12:05:00,54.2,33.9,30.29,ENE,78,0.0,9.0,46,0.00,,SKC,0.00,VWS V14.01,2013-02-09 17:05:00,
2013-02-09 12:10:00,54.6,34.8,30.29,ESE,121,2.0,9.0,47,0.00,,SKC,0.00,VWS V14.01,2013-02-09 17:10:00,
2013-02-09 12:15:00,54.8,33.3,30.29,NE,39,5.0,9.0,44,0.00,,SKC,0.00,VWS V14.01,2013-02-09 17:15:00,
2013-02-09 12:20:00,55.1,33.0,30.29,WSW,246,1.0,9.0,43,0.00,,SKC,0.00,VWS V14.01,2013-02-09 17:20:00,
2013-02-09 12:25:00,55.7,34.7,30.29,West,261,0.0,9.0,45,0.00,,SKC,0.00,VWS V14.01,2013-02-09 17:25:00,
2013-02-09 12:30:00,56.4,34.2,30.28,NNE,23,0.0,9.0,43,0.00,,SKC,0.00,VWS V14.01,2013-02-09 17:30:00,
2013-02-09 12:35:00,56.9,35.2,30.28,ENE,57,2.0,9.0,44,0.00,,SKC,0.00,VWS V14.01,2013-02-09 17:35:00,
2013-02-09 12:40:00,56.8,34.6,30.28,NE,41,2.0,9.0,43,0.00,,SKC,0.00,VWS V14.01,2013-02-09 17:40:00,
2013-02-09 12:45:00,56.5,33.7,30.28,ENE,78,0.0,9.0,42,0.00,,SKC,0.00,VWS V14.01,2013-02-09 17:45:00,
2013-02-09 12:50:00,56.7,33.9,30.27,NNW,336,3.0,9.0,42,0.00,,SKC,0.00,VWS V14.01,2013-02-09 17:50:00,
2013-02-09 12:55:00,56.9,33.5,30.27,North,5,0.0,9.0,41,0.00,,SKC,0.00,VWS V14.01,2013-02-09 17:55:00,
2013-02-09 13:00:00,57.5,34.0,30.27,ENE,62,5.0,9.0,41,0.00,,SKC,0.00,VWS V14.01,2013-02-09 18:00:00,
2013-02-09 13:05:00,57.5,34.0,30.26,NNE,28,0.0,4.0,41,0.00,,SKC,0.00,VWS V14.01,2013-02-09 18:05:00,
2013-02-09 13:10:00,58.1,34.5,30.26,NW,319,0.0,4.0,41,0.00,,SKC,0.00,VWS V14.01,2013-02-09 18:10:00,
2013-02-09 13:15:00,59.0,34.7,30.26,NW,313,0.0,4.0,40,0.00,,SKC,0.00,VWS V14.01,2013-02-09 18:15:00,
2013-02-09 13:20:00,59.0,33.5,30.26,ENE,58,4.0,7.0,38,0.00,,SKC,0.00,VWS V14.01,2013-02-09 18:20:00,
2013-02-09 13:25:00,58.5,33.7,30.26,ESE,115,3.0,7.0,39,0.00,,SKC,0.00,VWS V14.01,2013-02-09 18:25:00,
2013-02-09 13:30:00,58.4,32.9,30.26,ESE,115,0.0,7.0,38,0.00,,SKC,0.00,VWS V14.01,2013-02-09 18:30:00,
2013-02-09 13:35:00,59.0,33.5,30.26,NE,46,3.0,7.0,38,0.00,,SKC,0.00,VWS V14.01,2013-02-09 18:35:00,
2013-02-09 13:40:00,59.3,33.7,30.26,NE,47,1.0,7.0,38,0.00,,SKC,0.00,VWS V14.01,2013-02-09 18:40:00,
2013-02-09 13:45:00,59.3,33.7,30.26,WNW,296,4.0,7.0,38,0.00,,SKC,0.00,VWS V14.01,2013-02-09 18:45:00,
2013-02-09 13:50:00,59.5,32.5,30.26,NNW,340,3.0,7.0,36,0.00,,SKC,0.00,VWS V14.01,2013-02-09 18:50:00,
2013-02-09 13:55:00,59.5,32.5,30.26,WNW,300,0.0,7.0,36,0.00,,SKC,0.00,VWS V14.01,2013-02-09 18:55:00,
2013-02-09 14:00:00,60.0,33.7,30.26,NNW,347,1.0,7.0,37,0.00,,SKC,0.00,VWS V14.01,2013-02-09 19:00:00,
2013-02-09 14:05:00,60.2,33.2,30.26,ENE,59,0.0,5.0,36,0.00,,SKC,0.00,VWS V14.01,2013-02-09 19:05:00,
2013-02-09 14:10:00,60.4,32.7,30.26,North,10,3.0,5.0,35,0.00,,SKC,0.00,VWS V14.01,2013-02-09 19:10:00,
2013-02-09 14:15:00,60.7,32.2,30.26,WNW,292,0.0,5.0,34,0.00,,SKC,0.00,VWS V14.01,2013-02-09 19:15:00,
2013-02-09 14:20:00,61.3,33.4,30.25,NW,325,0.0,5.0,35,0.00,,SKC,0.00,VWS V14.01,2013-02-09 19:20:00,
2013-02-09 14:25:00,61.8,33.2,30.25,WSW,258,2.0,5.0,34,0.00,,SKC,0.00,VWS V14.01,2013-02-09 19:25:00,
2013-02-09 14:30:00,61.9,31.7,30.25,NE,55,4.0,6.0,32,0.00,,SKC,0.00,VWS V14.01,2013-02-09 19:30:00,
2013-02-09 14:35:00,61.4,32.8,30.24,ENE,61,2.0,6.0,34,0.00,,SKC,0.00,VWS V14.01,2013-02-09 19:35:00,
2013-02-09 14:40:00,61.5,31.4,30.24,ENE,67,0.0,6.0,32,0.00,,SKC,0.00,VWS V14.01,2013-02-09 19:40:00,
2013-02-09 14:45:00,62.4,32.2,30.24,West,263,0.0,6.0,32,0.00,,SKC,0.00,VWS V14.01,2013-02-09 19:45:00,
2013-02-09 14:50:00,62.8,31.7,30.23,NNE,29,1.0,6.0,31,0.00,,SKC,0.00,VWS V14.01,2013-02-09 19:50:00,
2013-02-09 14:55:00,62.5,32.3,30.23,NNW,344,3.0,6.0,32,0.00,,SKC,0.00,VWS V14.01,2013-02-09 19:55:00,
2013-02-09 15:00:00,62.2,31.2,30.23,WNW,282,3.0,6.0,31,0.00,,SKC,0.00,VWS V14.01,2013-02-09 20:00:00,
2013-02-09 15:05:00,62.0,30.2,30.23,East,82,6.0,9.0,30,0.00,,SKC,0.00,VWS V14.01,2013-02-09 20:05:00,
2013-02-09 15:10:00,61.7,30.8,30.23,East,90,10.0,10.0,31,0.00,,SKC,0.00,VWS V14.01,2013-02-09 20:10:00,
2013-02-09 15:15:00,61.4,30.5,30.23,ENE,69,1.0,10.0,31,0.00,,SKC,0.00,VWS V14.01,2013-02-09 20:15:00,
2013-02-09 15:20:00,61.3,30.4,30.23,NNE,30,0.0,10.0,31,0.00,,SKC,0.00,VWS V14.01,2013-02-09 20:20:00,
2013-02-09 15:25:00,61.6,29.9,30.23,ENE,67,0.0,10.0,30,0.00,,SKC,0.00,VWS V14.01,2013-02-09 20:25:00,
2013-02-09 15:30:00,62.0,31.0,30.22,East,95,4.0,10.0,31,0.00,,SKC,0.00,VWS V14.01,2013-02-09 20:30:00,
2013-02-09 15:35:00,62.0,31.0,30.22,East,82,2.0,10.0,31,0.00,,SKC,0.00,VWS V14.01,2013-02-09 20:35:00,
2013-02-09 15:40:00,61.7,30.0,30.22,East,101,0.0,10.0,30,0.00,,SKC,0.00,VWS V14.01,2013-02-09 20:40:00,
2013-02-09 15:45:00,61.9,31.7,30.23,ENE,72,0.0,10.0,32,0.00,,SKC,0.00,VWS V14.01,2013-02-09 20:45:00,
2013-02-09 15:50:00,62.1,30.3,30.23,ESE,113,0.0,10.0,30,0.00,,SKC,0.00,VWS V14.01,2013-02-09 20:50:00,
2013-02-09 15:55:00,62.1,30.3,30.23,ESE,115,1.0,10.0,30,0.00,,SKC,0.00,VWS V14.01,2013-02-09 20:55:00,
2013-02-09 16:00:00,61.7,29.1,30.23,ESE,120,4.0,10.0,29,0.00,,SKC,0.00,VWS V14.01,2013-02-09 21:00:00,
2013-02-09 16:05:00,61.6,29.1,30.23,SE,140,2.0,2.0,29,0.00,,SKC,0.00,VWS V14.01,2013-02-09 21:05:00,
2013-02-09 16:10:00,61.6,29.1,30.23,SE,133,4.0,7.0,29,0.00,,SKC,0.00,VWS V14.01,2013-02-09 21:10:00,
2013-02-09 16:15:00,61.3,27.9,30.23,ESE,113,1.0,7.0,28,0.00,,SKC,0.00,VWS V14.01,2013-02-09 21:15:00,
2013-02-09 16:20:00,61.5,29.8,30.23,SSE,154,0.0,7.0,30,0.00,,SKC,0.00,VWS V14.01,2013-02-09 21:20:00,
2013-02-09 16:25:00,61.5,29.8,30.23,East,84,0.0,7.0,30,0.00,,SKC,0.00,VWS V14.01,2013-02-09 21:25:00,
2013-02-09 16:30:00,61.4,30.5,30.23,NE,44,2.0,7.0,31,0.00,,SKC,0.00,VWS V14.01,2013-02-09 21:30:00,
2013-02-09 16:35:00,61.5,31.4,30.23,ENE,66,0.0,7.0,32,0.00,,SKC,0.00,VWS V14.01,2013-02-09 21:35:00,
2013-02-09 16:40:00,61.4,28.9,30.24,ENE,76,1.0,7.0,29,0.00,,SKC,0.00,VWS V14.01,2013-02-09 21:40:00,
2013-02-09 16:45:00,61.4,29.7,30.24,ENE,69,0.0,7.0,30,0.00,,SKC,0.00,VWS V14.01,2013-02-09 21:45:00,
2013-02-09 16:50:00,61.4,29.7,30.24,SE,140,2.0,7.0,30,0.00,,SKC,0.00,VWS V14.01,2013-02-09 21:50:00,
2013-02-09 16:55:00,61.2,29.5,30.24,East,87,1.0,7.0,30,0.00,,SKC,0.00,VWS V14.01,2013-02-09 21:55:00,
2013-02-09 17:00:00,61.1,30.3,30.24,East,84,1.0,7.0,31,0.00,,SKC,0.00,VWS V14.01,2013-02-09 22:00:00,
2013-02-09 17:05:00,61.0,30.2,30.24,East,84,0.0,3.0,31,0.00,,SKC,0.00,VWS V14.01,2013-02-09 22:05:00,
2013-02-09 17:10:00,60.9,29.3,30.24,East,84,1.0,4.0,30,0.00,,SKC,0.00,VWS V14.01,2013-02-09 22:10:00,
2013-02-09 17:15:00,60.8,30.0,30.24,East,84,4.0,4.0,31,0.00,,SKC,0.00,VWS V14.01,2013-02-09 22:15:00,
2013-02-09 17:20:00,60.6,29.8,30.24,East,85,1.0,5.0,31,0.00,,SKC,0.00,VWS V14.01,2013-02-09 22:20:00,
2013-02-09 17:25:00,60.4,29.6,30.24,East,85,1.0,5.0,31,0.00,,SKC,0.00,VWS V14.01,2013-02-09 22:25:00,
2013-02-09 17:30:00,60.2,30.2,30.23,East,84,0.0,5.0,32,0.00,,SKC,0.00,VWS V14.01,2013-02-09 22:30:00,
2013-02-09 17:35:00,60.0,29.3,30.24,East,85,0.0,5.0,31,0.00,,SKC,0.00,VWS V14.01,2013-02-09 22:35:00,
2013-02-09 17:40:00,59.8,29.9,30.24,East,85,0.0,5.0,32,0.00,,SKC,0.00,VWS V14.01,2013-02-09 22:40:00,
2013-02-09 17:45:00,59.4,29.6,30.24,East,85,0.0,5.0,32,0.00,,SKC,0.00,VWS V14.01,2013-02-09 22:45:00,
2013-02-09 17:50:00,59.0,30.7,30.24,East,85,0.0,5.0,34,0.00,,SKC,0.00,VWS V14.01,2013-02-09 22:50:00,
2013-02-09 17:55:00,58.5,29.5,30.24,East,85,0.0,5.0,33,0.00,,SKC,0.00,VWS V14.01,2013-02-09 22:55:00,
2013-02-09 18:00:00,57.9,30.4,30.24,East,85,0.0,5.0,35,0.00,,SKC,0.00,VWS V14.01,2013-02-09 23:00:00,
2013-02-09 18:05:00,57.3,29.9,30.25,East,85,0.0,0.0,35,0.00,,SKC,0.00,VWS V14.01,2013-02-09 23:05:00,
2013-02-09 18:10:00,56.7,30.1,30.25,East,85,0.0,0.0,36,0.00,,SKC,0.00,VWS V14.01,2013-02-09 23:10:00,
2013-02-09 18:15:00,56.0,29.4,30.25,East,85,0.0,0.0,36,0.00,,SKC,0.00,VWS V14.01,2013-02-09 23:15:00,
2013-02-09 18:20:00,55.4,29.6,30.25,East,85,0.0,0.0,37,0.00,,SKC,0.00,VWS V14.01,2013-02-09 23:20:00,
2013-02-09 18:25:00,55.0,30.5,30.25,East,85,0.0,1.0,39,0.00,,SKC,0.00,VWS V14.01,2013-02-09 23:25:00,
2013-02-09 18:30:00,54.6,30.2,30.25,East,85,1.0,1.0,39,0.00,,SKC,0.00,VWS V14.01,2013-02-09 23:30:00,
2013-02-09 18:35:00,54.2,30.4,30.26,East,85,0.0,1.0,40,0.00,,SKC,0.00,VWS V14.01,2013-02-09 23:35:00,
2013-02-09 18:40:00,53.7,30.6,30.26,East,85,0.0,1.0,41,0.00,,SKC,0.00,VWS V14.01,2013-02-09 23:40:00,
2013-02-09 18:45:00,53.4,29.7,30.26,East,85,0.0,2.0,40,0.00,,SKC,0.00,VWS V14.01,2013-02-09 23:45:00,
2013-02-09 18:50:00,53.3,30.8,30.26,East,85,0.0,2.0,42,0.00,,SKC,0.00,VWS V14.01,2013-02-09 23:50:00,
2013-02-09 18:55:00,52.7,30.9,30.26,East,85,0.0,2.0,43,0.00,,SKC,0.00,VWS V14.01,2013-02-09 23:55:00,
2013-02-09 19:00:00,51.9,32.3,30.26,East,85,0.0,2.0,47,0.00,,SKC,0.00,VWS V14.01,2013-02-10 00:00:00,
2013-02-09 19:05:00,51.4,30.8,30.27,East,85,0.0,0.0,45,0.00,,SKC,0.00,VWS V14.01,2013-02-10 00:05:00,
2013-02-09 19:10:00,51.2,32.2,30.27,East,85,0.0,1.0,48,0.00,,SKC,0.00,VWS V14.01,2013-02-10 00:10:00,
2013-02-09 19:15:00,50.6,32.2,30.27,East,85,0.0,1.0,49,0.00,,SKC,0.00,VWS V14.01,2013-02-10 00:15:00,
2013-02-09 19:20:00,49.9,31.5,30.27,East,85,1.0,2.0,49,0.00,,SKC,0.00,VWS V14.01,2013-02-10 00:20:00,
2013-02-09 19:25:00,49.2,32.3,30.27,East,85,0.0,2.0,52,0.00,,SKC,0.00,VWS V14.01,2013-02-10 00:25:00,
2013-02-09 19:30:00,48.5,31.7,30.28,East,85,0.0,2.0,52,0.00,,SKC,0.00,VWS V14.01,2013-02-10 00:30:00,
2013-02-09 19:35:00,48.1,32.7,30.28,East,85,0.0,2.0,55,0.00,,SKC,0.00,VWS V14.01,2013-02-10 00:35:00,
2013-02-09 19:40:00,47.8,31.5,30.28,East,85,0.0,2.0,53,0.00,,SKC,0.00,VWS V14.01,2013-02-10 00:40:00,
2013-02-09 19:45:00,48.1,32.3,30.29,East,85,0.0,2.0,54,0.00,,SKC,0.00,VWS V14.01,2013-02-10 00:45:00,
2013-02-09 19:50:00,48.2,31.4,30.29,East,85,0.0,2.0,52,0.00,,SKC,0.00,VWS V14.01,2013-02-10 00:50:00,
2013-02-09 19:55:00,48.5,31.7,30.29,East,85,0.0,2.0,52,0.00,,SKC,0.00,VWS V14.01,2013-02-10 00:55:00,
2013-02-09 20:00:00,48.5,31.7,30.29,East,85,0.0,2.0,52,0.00,,SKC,0.00,VWS V14.01,2013-02-10 01:00:00,
2013-02-09 20:05:00,48.0,32.2,30.29,East,85,0.0,1.0,54,0.00,,SKC,0.00,VWS V14.01,2013-02-10 01:05:00,
2013-02-09 20:10:00,47.7,31.4,30.29,East,85,0.0,2.0,53,0.00,,SKC,0.00,VWS V14.01,2013-02-10 01:10:00,
2013-02-09 20:15:00,47.6,31.3,30.29,East,85,0.0,2.0,53,0.00,,SKC,0.00,VWS V14.01,2013-02-10 01:15:00,
2013-02-09 20:20:00,47.6,31.3,30.29,East,85,0.0,2.0,53,0.00,,SKC,0.00,VWS V14.01,2013-02-10 01:20:00,
2013-02-09 20:25:00,47.4,31.6,30.30,East,85,0.0,2.0,54,0.00,,SKC,0.00,VWS V14.01,2013-02-10 01:25:00,
2013-02-09 20:30:00,46.7,31.0,30.30,East,85,0.0,2.0,54,0.00,,SKC,0.00,VWS V14.01,2013-02-10 01:30:00,
2013-02-09 20:35:00,46.2,30.9,30.30,East,85,0.0,2.0,55,0.00,,SKC,0.00,VWS V14.01,2013-02-10 01:35:00,
2013-02-09 20:40:00,45.8,30.6,30.30,East,85,0.0,2.0,55,0.00,,SKC,0.00,VWS V14.01,2013-02-10 01:40:00,
2013-02-09 20:45:00,45.6,30.4,30.30,East,85,0.0,2.0,55,0.00,,SKC,0.00,VWS V14.01,2013-02-10 01:45:00,
2013-02-09 20:50:00,45.8,30.6,30.30,East,85,1.0,2.0,55,0.00,,SKC,0.00,VWS V14.01,2013-02-10 01:50:00,
2013-02-09 20:55:00,46.9,29.2,30.30,East,85,0.0,3.0,50,0.00,,SKC,0.00,VWS V14.01,2013-02-10 01:55:00,
2013-02-09 21:00:00,47.9,29.7,30.30,East,85,0.0,3.0,49,0.00,,SKC,0.00,VWS V14.01,2013-02-10 02:00:00,
2013-02-09 21:05:00,48.6,29.3,30.30,East,85,0.0,2.0,47,0.00,,SKC,0.00,VWS V14.01,2013-02-10 02:05:00,
2013-02-09 21:10:00,49.1,29.2,30.30,East,85,1.0,2.0,46,0.00,,SKC,0.00,VWS V14.01,2013-02-10 02:10:00,
2013-02-09 21:14:00,49.6,29.7,30.30,East,85,1.0,3.0,46,0.00,,SKC,0.00,VWS V14.01,2013-02-10 02:14:00,
2013-02-09 21:19:00,49.5,30.1,30.30,East,85,0.0,3.0,47,0.00,,SKC,0.00,VWS V14.01,2013-02-10 02:19:00,
2013-02-09 21:24:00,49.3,29.9,30.30,East,85,0.0,3.0,47,0.00,,SKC,0.00,VWS V14.01,2013-02-10 02:24:00,
2013-02-09 21:29:00,48.9,29.6,30.30,East,85,1.0,3.0,47,0.00,,SKC,0.00,VWS V14.01,2013-02-10 02:29:00,
2013-02-09 21:34:00,48.6,29.3,30.30,East,85,0.0,3.0,47,0.00,,SKC,0.00,VWS V14.01,2013-02-10 02:34:00,
2013-02-09 21:39:00,48.5,29.2,30.30,East,85,0.0,3.0,47,0.00,,SKC,0.00,VWS V14.01,2013-02-10 02:39:00,
2013-02-09 21:44:00,48.5,29.2,30.30,East,85,0.0,3.0,47,0.00,,SKC,0.00,VWS V14.01,2013-02-10 02:44:00,
2013-02-09 21:49:00,48.5,28.7,30.30,East,85,0.0,3.0,46,0.00,,SKC,0.00,VWS V14.01,2013-02-10 02:49:00,
2013-02-09 21:54:00,48.3,29.0,30.31,East,85,0.0,3.0,47,0.00,,SKC,0.00,VWS V14.01,2013-02-10 02:54:00,
2013-02-09 21:59:00,48.0,29.3,30.31,East,85,0.0,3.0,48,0.00,,SKC,0.00,VWS V14.01,2013-02-10 02:59:00,
2013-02-09 22:00:00,48.8,28.4,30.30,ESE,108,0.0,3.0,45,0.00,,-RA,0.00,VWS V14.01,2013-02-10 03:00:00,
2013-02-09 22:04:00,47.8,29.1,30.30,East,85,0.0,1.0,48,0.00,,SKC,0.00,VWS V14.01,2013-02-10 03:04:00,
2013-02-09 22:09:00,47.6,29.9,30.30,East,85,0.0,2.0,50,0.00,,SKC,0.00,VWS V14.01,2013-02-10 03:09:00,
2013-02-09 22:14:00,47.4,29.7,30.31,East,85,0.0,2.0,50,0.00,,SKC,0.00,VWS V14.01,2013-02-10 03:14:00,
2013-02-09 22:19:00,47.6,29.4,30.30,East,85,0.0,2.0,49,0.00,,SKC,0.00,VWS V14.01,2013-02-10 03:19:00,
2013-02-09 22:24:00,48.1,29.4,30.30,East,85,1.0,2.0,48,0.00,,SKC,0.00,VWS V14.01,2013-02-10 03:24:00,
2013-02-09 22:29:00,49.0,28.6,30.30,East,85,0.0,2.0,45,0.00,,SKC,0.00,VWS V14.01,2013-02-10 03:29:00,
2013-02-09 22:34:00,49.5,28.5,30.30,East,85,1.0,2.0,44,0.00,,SKC,0.00,VWS V14.01,2013-02-10 03:34:00,
2013-02-09 22:39:00,49.6,29.1,30.30,East,85,0.0,2.0,45,0.00,,SKC,0.00,VWS V14.01,2013-02-10 03:39:00,
2013-02-09 22:44:00,49.5,29.6,30.30,ESE,108,0.0,3.0,46,0.00,,SKC,0.00,VWS V14.01,2013-02-10 03:44:00,
2013-02-09 22:49:00,48.7,29.9,30.30,ESE,108,0.0,3.0,48,0.00,,SKC,0.00,VWS V14.01,2013-02-10 03:49:00,
2013-02-09 22:54:00,48.3,29.5,30.30,ESE,108,0.0,3.0,48,0.00,,SKC,0.00,VWS V14.01,2013-02-10 03:54:00,
2013-02-09 22:59:00,48.6,28.2,30.30,ESE,108,0.0,3.0,45,0.00,,SKC,0.00,VWS V14.01,2013-02-10 03:59:00,
2013-02-09 23:00:00,46.0,28.9,30.31,East,86,0.0,6.0,51,0.00,,SKC,0.00,VWS V14.01,2013-02-10 04:00:00,
2013-02-09 23:04:00,49.2,29.3,30.29,ESE,108,0.0,1.0,46,0.00,,SKC,0.00,VWS V14.01,2013-02-10 04:04:00,
2013-02-09 23:09:00,49.1,29.2,30.29,ESE,108,2.0,4.0,46,0.00,,SKC,0.00,VWS V14.01,2013-02-10 04:09:00,
2013-02-09 23:14:00,49.2,28.8,30.29,SE,126,3.0,6.0,45,0.00,,SKC,0.00,VWS V14.01,2013-02-10 04:14:00,
2013-02-09 23:19:00,49.4,29.0,30.29,ESE,111,2.0,6.0,45,0.00,,SKC,0.00,VWS V14.01,2013-02-10 04:19:00,
2013-02-09 23:24:00,49.2,28.8,30.29,ESE,111,0.0,6.0,45,0.00,,SKC,0.00,VWS V14.01,2013-02-10 04:24:00,
2013-02-09 23:29:00,49.1,28.1,30.29,ESE,111,2.0,6.0,44,0.00,,SKC,0.00,VWS V14.01,2013-02-10 04:29:00,
2013-02-09 23:34:00,48.8,29.0,30.29,ESE,119,1.0,6.0,46,0.00,,SKC,0.00,VWS V14.01,2013-02-10 04:34:00,
2013-02-09 23:39:00,47.8,29.6,30.30,SE,133,1.0,6.0,49,0.00,,SKC,0.00,VWS V14.01,2013-02-10 04:39:00,
2013-02-09 23:44:00,46.9,29.2,30.30,East,86,0.0,6.0,50,0.00,,SKC,0.00,VWS V14.01,2013-02-10 04:44:00,
2013-02-09 23:49:00,46.0,29.4,30.30,East,86,0.0,6.0,52,0.00,,SKC,0.00,VWS V14.01,2013-02-10 04:49:00,
2013-02-09 23:54:00,46.0,29.4,30.30,East,86,0.0,6.0,52,0.00,,SKC,0.00,VWS V14.01,2013-02-10 04:54:00,
2013-02-09 23:59:00,46.0,28.9,30.30,East,86,0.0,6.0,51,0.00,,SKC,0.00,VWS V14.01,2013-02-10 04:59:00,